createdAt,value
2019-03-19T00:02:24.287Z,1.57
2019-03-19T00:06:28.513Z,1.87
2019-03-19T00:10:32.681Z,1.70
2019-03-19T00:14:36.898Z,1.60
2019-03-19T00:18:41.148Z,1.70
2019-03-19T00:22:45.429Z,1.70
2019-03-19T00:26:50.047Z,1.80
2019-03-19T00:30:54.599Z,1.97
2019-03-19T00:34:59.733Z,2.00
2019-03-19T00:39:05.571Z,2.13
2019-03-19T00:43:09.787Z,1.80
2019-03-19T00:47:14.023Z,2.20
2019-03-19T00:51:18.612Z,2.33
2019-03-19T00:55:22.828Z,2.00
2019-03-19T00:59:27.238Z,2.30
2019-03-19T01:03:31.494Z,2.73
2019-03-19T01:07:35.706Z,2.13
2019-03-19T01:11:39.946Z,2.30
2019-03-19T01:15:44.244Z,2.37
2019-03-19T01:19:48.467Z,2.33
2019-03-19T01:23:52.982Z,2.40
2019-03-19T01:27:57.162Z,2.20
2019-03-19T01:32:01.384Z,1.97
2019-03-19T01:36:05.661Z,2.70
2019-03-19T01:40:09.871Z,2.53
2019-03-19T01:44:14.091Z,2.20
2019-03-19T01:48:18.294Z,2.70
2019-03-19T01:52:22.506Z,2.60
2019-03-19T01:56:26.714Z,2.60
2019-03-19T02:00:30.889Z,2.67
2019-03-19T02:04:35.400Z,2.90
2019-03-19T02:08:39.616Z,2.70
2019-03-19T02:12:44.265Z,2.50
2019-03-19T02:16:48.523Z,2.57
2019-03-19T02:20:52.700Z,2.40
2019-03-19T02:24:56.936Z,2.80
2019-03-19T02:29:01.175Z,2.73
2019-03-19T02:33:05.393Z,2.50
2019-03-19T02:37:09.725Z,2.67
2019-03-19T02:41:13.917Z,2.90
2019-03-19T02:45:18.133Z,2.17
2019-03-19T02:49:22.299Z,2.50
2019-03-19T02:53:29.492Z,2.30
2019-03-19T02:57:32.809Z,2.40
2019-03-19T03:01:37.173Z,2.80
2019-03-19T03:05:41.382Z,3.23
2019-03-19T03:09:45.743Z,2.73
2019-03-19T03:13:50.065Z,2.63
2019-03-19T03:17:54.279Z,2.33
2019-03-19T03:21:58.646Z,3.03
2019-03-19T03:26:02.857Z,2.70
2019-03-19T03:30:08.298Z,2.60
2019-03-19T03:34:14.793Z,2.90
2019-03-19T03:38:19.511Z,2.53
2019-03-19T03:42:23.775Z,2.77
2019-03-19T03:46:28.201Z,2.40
2019-03-19T03:50:32.597Z,2.93
2019-03-19T03:54:36.931Z,2.80
2019-03-19T03:58:42.027Z,2.87
2019-03-19T04:02:46.252Z,2.47
2019-03-19T04:06:50.503Z,2.67
2019-03-19T04:10:55.698Z,2.80
2019-03-19T04:14:59.940Z,2.57
2019-03-19T04:19:04.186Z,2.40
2019-03-19T04:23:08.403Z,3.00
2019-03-19T04:27:16.291Z,2.50
2019-03-19T04:31:18.590Z,2.87
2019-03-19T04:35:22.834Z,2.40
2019-03-19T04:39:27.407Z,3.03
2019-03-19T04:43:31.678Z,3.17
2019-03-19T04:47:36.424Z,2.60
2019-03-19T04:51:40.944Z,2.37
2019-03-19T04:55:45.947Z,3.07
2019-03-19T04:59:50.169Z,2.67
2019-03-19T05:03:54.344Z,2.40
2019-03-19T05:07:58.621Z,2.60
2019-03-19T05:12:02.820Z,2.47
2019-03-19T05:16:07.222Z,2.40
2019-03-19T05:20:11.680Z,2.70
2019-03-19T05:24:15.895Z,2.83
2019-03-19T05:28:20.144Z,2.30
2019-03-19T05:32:24.418Z,2.80
2019-03-19T05:36:28.899Z,2.63
2019-03-19T05:40:33.185Z,2.77
2019-03-19T05:44:37.375Z,2.60
2019-03-19T05:48:41.655Z,2.90
2019-03-19T05:52:48.316Z,2.70
2019-03-19T05:56:51.777Z,2.60
2019-03-19T06:00:55.944Z,3.20
2019-03-19T06:05:00.354Z,2.70
2019-03-19T06:09:06.679Z,2.47
2019-03-19T06:13:10.914Z,2.75
2019-03-19T06:17:15.128Z,2.80
2019-03-19T06:21:19.415Z,2.90
2019-03-19T06:25:23.594Z,2.87
2019-03-19T06:29:27.806Z,2.33
2019-03-19T06:33:32.038Z,2.70
2019-03-19T06:37:36.261Z,2.50
2019-03-19T06:41:40.555Z,2.50
2019-03-19T06:45:44.798Z,2.60
2019-03-19T06:49:49.371Z,2.40
2019-03-19T06:53:53.566Z,3.07
2019-03-19T06:57:57.811Z,2.50
2019-03-19T07:02:02.388Z,2.63
2019-03-19T07:06:06.591Z,2.23
2019-03-19T07:10:11.521Z,2.80
2019-03-19T07:14:15.718Z,2.77
2019-03-19T07:18:19.986Z,2.77
2019-03-19T07:22:24.211Z,2.60
2019-03-19T07:26:28.774Z,2.60
2019-03-19T07:30:32.986Z,2.10
2019-03-19T07:34:37.205Z,2.57
2019-03-19T07:38:41.425Z,2.37
2019-03-19T07:42:45.735Z,2.00
2019-03-19T07:46:49.952Z,2.17
2019-03-19T07:50:54.170Z,2.20
2019-03-19T07:54:58.395Z,2.10
2019-03-19T07:59:02.633Z,2.43
2019-03-19T08:03:15.690Z,2.47
2019-03-19T08:07:12.872Z,2.47
2019-03-19T08:11:17.130Z,2.37
2019-03-19T08:15:21.310Z,2.30
2019-03-19T08:19:25.538Z,2.40
2019-03-19T08:23:30.005Z,2.00
2019-03-19T08:27:34.216Z,2.03
2019-03-19T08:31:38.461Z,2.13
2019-03-19T08:35:42.656Z,2.00
2019-03-19T08:39:46.842Z,2.40
2019-03-19T08:43:52.668Z,2.20
2019-03-19T08:47:56.996Z,2.47
2019-03-19T08:52:01.265Z,2.07
2019-03-19T08:56:05.510Z,1.90
2019-03-19T09:00:12.962Z,2.40
2019-03-19T09:04:17.140Z,2.37
2019-03-19T09:08:21.647Z,2.60
2019-03-19T09:12:25.828Z,1.97
2019-03-19T09:16:30.043Z,2.63
2019-03-19T09:20:34.411Z,2.50
2019-03-19T09:24:38.585Z,2.10
2019-03-19T09:28:42.829Z,1.90
2019-03-19T09:32:47.006Z,2.00
2019-03-19T09:36:57.197Z,2.00
2019-03-19T09:40:57.488Z,1.77
2019-03-19T09:45:01.708Z,2.20
2019-03-19T09:49:05.953Z,2.13
2019-03-19T09:53:10.167Z,1.90
2019-03-19T09:57:14.384Z,1.73
2019-03-19T10:01:18.592Z,2.00
2019-03-19T10:05:22.834Z,1.80
2019-03-19T10:09:27.009Z,1.97
2019-03-19T10:13:31.583Z,2.30
2019-03-19T10:17:35.764Z,2.27
2019-03-19T10:21:39.994Z,1.50
2019-03-19T10:25:44.242Z,2.17
2019-03-19T10:29:48.476Z,2.37
2019-03-19T10:33:52.642Z,2.20
2019-03-19T10:37:56.932Z,1.93
2019-03-19T10:42:01.462Z,2.00
2019-03-19T10:46:05.688Z,2.13
2019-03-19T10:50:13.796Z,1.97
2019-03-19T10:54:18.032Z,2.13
2019-03-19T10:58:22.260Z,2.47
2019-03-19T11:02:26.490Z,2.30
2019-03-19T11:06:30.707Z,2.70
2019-03-19T11:10:34.930Z,2.40
2019-03-19T11:14:39.160Z,2.23
2019-03-19T11:18:43.390Z,2.23
2019-03-19T11:22:47.710Z,2.30
2019-03-19T11:26:52.305Z,2.13
2019-03-19T11:30:56.634Z,2.50
2019-03-19T11:35:00.981Z,2.20
2019-03-19T11:39:08.285Z,2.03
2019-03-19T11:43:12.591Z,2.23
2019-03-19T11:47:16.799Z,2.10
2019-03-19T11:51:21.001Z,2.40
2019-03-19T11:55:25.265Z,2.70
2019-03-19T11:59:29.497Z,2.20
2019-03-19T12:03:33.729Z,2.30
2019-03-19T12:07:37.989Z,2.40
2019-03-19T12:11:42.215Z,2.53
2019-03-19T12:15:46.443Z,2.20
2019-03-19T12:19:50.677Z,2.20
2019-03-19T12:23:54.949Z,2.13
2019-03-19T12:27:59.127Z,1.90
2019-03-19T12:32:03.326Z,1.90
2019-03-19T12:36:07.882Z,2.20
2019-03-19T12:40:13.354Z,2.00
2019-03-19T12:44:17.623Z,1.60
2019-03-19T12:48:21.847Z,1.80
2019-03-19T12:52:26.069Z,1.50
2019-03-19T12:56:30.293Z,1.50
2019-03-19T13:00:35.149Z,1.17
2019-03-19T13:04:39.407Z,1.30
2019-03-19T13:08:43.939Z,1.47
2019-03-19T13:12:48.180Z,1.33
2019-03-19T13:16:52.423Z,1.10
2019-03-19T13:20:56.663Z,1.30
2019-03-19T13:25:01.727Z,1.30
2019-03-19T13:29:05.938Z,1.60
2019-03-19T13:33:10.315Z,1.80
2019-03-19T13:37:14.548Z,1.50
2019-03-19T13:41:18.781Z,1.50
2019-03-19T13:45:23.618Z,1.87
2019-03-19T13:49:28.239Z,1.63
2019-03-19T13:53:32.523Z,1.50
2019-03-19T13:57:36.749Z,1.30
2019-03-19T14:01:40.935Z,1.57
2019-03-19T14:05:45.242Z,1.77
2019-03-19T14:09:49.902Z,1.70
2019-03-19T14:13:55.795Z,1.70
2019-03-19T14:18:00.173Z,1.80
2019-03-19T14:22:04.403Z,1.47
2019-03-19T14:26:08.603Z,1.40
2019-03-19T14:30:15.186Z,1.30
2019-03-19T14:34:19.392Z,1.60
2019-03-19T14:38:23.615Z,1.70
2019-03-19T14:42:27.916Z,1.30
2019-03-19T14:46:32.208Z,1.50
2019-03-19T14:50:36.502Z,1.30
2019-03-19T14:54:40.822Z,1.50
2019-03-19T14:58:45.462Z,1.67
2019-03-19T15:02:49.767Z,1.60
2019-03-19T15:06:53.987Z,1.67
2019-03-19T15:10:58.235Z,0.90
2019-03-19T15:15:02.443Z,1.10
2019-03-19T15:19:06.780Z,1.83
2019-03-19T15:23:11.159Z,1.40
2019-03-19T15:27:15.402Z,1.60
2019-03-19T15:31:29.386Z,1.43
2019-03-19T15:35:26.163Z,1.57
2019-03-19T15:39:30.448Z,1.60
2019-03-19T15:43:34.765Z,1.40
2019-03-19T15:47:39.136Z,1.40
2019-03-19T15:51:43.406Z,1.50
2019-03-19T15:55:47.878Z,1.60
2019-03-19T15:59:52.065Z,1.30
2019-03-19T16:03:56.332Z,1.30
2019-03-19T16:08:01.968Z,1.40
2019-03-19T16:12:06.362Z,1.43
2019-03-19T16:16:10.643Z,1.40
2019-03-19T16:20:15.221Z,1.67
2019-03-19T16:24:19.531Z,1.60
2019-03-19T16:28:23.986Z,1.20
2019-03-19T16:32:28.401Z,1.40
2019-03-19T16:36:33.749Z,1.20
2019-03-19T16:40:37.975Z,1.30
2019-03-19T16:44:42.224Z,1.30
2019-03-19T16:48:46.441Z,1.53
2019-03-19T16:52:50.849Z,1.30
2019-03-19T16:56:55.071Z,1.67
2019-03-19T17:00:59.285Z,1.73
2019-03-19T17:05:04.160Z,1.53
2019-03-19T17:09:08.852Z,1.70
2019-03-19T17:13:13.208Z,1.40
2019-03-19T17:17:17.992Z,1.80
2019-03-19T17:21:23.090Z,1.50
2019-03-19T17:25:28.108Z,1.40
2019-03-19T17:29:32.439Z,1.60
2019-03-19T17:33:36.720Z,1.37
2019-03-19T17:37:40.950Z,1.90
2019-03-19T17:41:45.250Z,2.43
2019-03-19T17:45:49.525Z,2.07
2019-03-19T17:49:54.001Z,2.63
2019-03-19T17:53:58.221Z,2.30
2019-03-19T17:58:03.925Z,2.00
2019-03-19T18:02:08.156Z,1.50
2019-03-19T18:06:12.498Z,1.60
2019-03-19T18:10:16.880Z,2.10
2019-03-19T18:14:21.235Z,1.70
2019-03-19T18:18:25.998Z,1.90
2019-03-19T18:22:30.334Z,1.97
2019-03-19T18:26:35.669Z,1.30
2019-03-19T18:30:42.277Z,1.20
2019-03-19T18:34:46.652Z,1.80
2019-03-19T18:38:50.902Z,1.87
2019-03-19T18:42:55.129Z,1.70
2019-03-19T18:47:00.637Z,1.87
2019-03-19T18:51:05.662Z,1.97
2019-03-19T18:55:59.282Z,1.97
2019-03-19T19:00:05.413Z,2.03
2019-03-19T19:04:10.641Z,2.43
2019-03-19T19:08:15.372Z,2.20
2019-03-19T19:12:19.663Z,1.87
2019-03-19T19:16:24.044Z,1.87
2019-03-19T19:20:28.692Z,2.10
2019-03-19T19:24:32.934Z,3.60
2019-03-19T19:28:37.480Z,2.20
2019-03-19T19:32:41.886Z,1.90
2019-03-19T19:36:47.486Z,1.87
2019-03-19T19:40:51.670Z,1.97
2019-03-19T19:44:55.983Z,2.00
2019-03-19T19:49:00.345Z,2.70
2019-03-19T19:53:05.356Z,1.60
2019-03-19T19:57:09.850Z,1.93
2019-03-19T20:01:14.135Z,1.73
2019-03-19T20:05:18.898Z,1.97
2019-03-19T20:09:24.076Z,1.90
2019-03-19T20:13:28.465Z,2.00
2019-03-19T20:17:32.690Z,1.97
2019-03-19T20:21:36.875Z,1.70
2019-03-19T20:25:41.217Z,2.10
2019-03-19T20:29:45.473Z,2.10
2019-03-19T20:33:49.743Z,1.70
2019-03-19T20:37:54.020Z,1.80
2019-03-19T20:41:59.976Z,1.70
2019-03-19T20:46:04.904Z,2.10
2019-03-19T20:50:13.548Z,2.10
2019-03-19T20:54:17.805Z,1.73
2019-03-19T20:58:23.415Z,1.57
2019-03-19T21:02:27.699Z,2.07
2019-03-19T21:06:31.956Z,1.90
2019-03-19T21:10:37.858Z,1.93
2019-03-19T21:14:42.108Z,1.93
2019-03-19T21:18:46.496Z,2.27
2019-03-19T21:22:50.735Z,2.03
2019-03-19T21:26:57.957Z,1.83
2019-03-19T21:31:02.180Z,2.20
2019-03-19T21:35:06.494Z,2.30
2019-03-19T21:39:11.139Z,1.83
2019-03-19T21:43:15.424Z,1.80
2019-03-19T21:47:19.642Z,1.90
2019-03-19T21:51:23.935Z,2.07
2019-03-19T21:55:28.175Z,2.00
2019-03-19T21:59:32.731Z,2.10
2019-03-19T22:03:36.945Z,2.00
2019-03-19T22:07:41.230Z,2.20
2019-03-19T22:11:45.453Z,2.20
2019-03-19T22:15:49.751Z,2.23
2019-03-19T22:19:54.318Z,2.13
2019-03-19T22:23:58.503Z,2.40
2019-03-19T22:28:02.719Z,2.30
2019-03-19T22:32:06.948Z,2.00
2019-03-19T22:36:11.990Z,2.30
2019-03-19T22:40:16.357Z,2.27
2019-03-19T22:44:20.920Z,2.60
2019-03-19T22:48:25.164Z,2.13
2019-03-19T22:52:29.524Z,2.40
2019-03-19T22:56:33.748Z,2.20
2019-03-19T23:00:49.140Z,2.17
2019-03-19T23:04:53.352Z,2.33
2019-03-19T23:08:57.882Z,2.50
2019-03-19T23:13:02.125Z,2.57
2019-03-19T23:17:06.615Z,2.50
2019-03-19T23:21:10.822Z,2.93
2019-03-19T23:25:15.202Z,2.30
2019-03-19T23:29:19.488Z,2.83
2019-03-19T23:33:23.697Z,2.13
2019-03-19T23:37:27.859Z,2.80
2019-03-19T23:41:32.096Z,2.40
2019-03-19T23:45:36.273Z,2.63
2019-03-19T23:49:40.485Z,2.80
2019-03-19T23:53:45.047Z,2.47
2019-03-19T23:57:49.250Z,2.73
